Buoy 16556

sailwx.info

Track history (hours):
 
Tides and Currents Weather Stations Pressure Air Temp Water Temp Dewpoint Dewpoint Depression Visibility Wind Speed Wind Dir Waves Ship Positions

Drifting buoy 16556

Last reported at 2018-May-24 18:00 UTC. Time now 2018-Jun-19 12:15 UTC.
Position S 38°33' E 174°38'.
Warning: this ship's position is 25 days out of date.

Barometer 1001.8 mb
Water temperature 13.1 ° C

Date/timePositionNaut miles runAvg speedWind from/ knotsBaromVisibWave heightAir tempDewpointWater temp
2018-May-24 18:00S 38°33' E 174°38'0 0.0 1001.8 13.1
2018-May-24 17:00S 38°33' E 174°38'0 0.1 1000.9 12.6
2018-May-24 11:00S 38°33' E 174°38'0 0.0 1003.3 13.8
2018-May-24 10:00S 38°33' E 174°38'0 0.1 1003.7 14.1
2018-May-24 06:00S 38°33' E 174°38'0 0.0 1003.6 15.6
2018-May-24 05:00S 38°33' E 174°38'2 0.3 1004.1 15.7
2018-May-23 22:00S 38°34' E 174°35'0 0.5 1007.0 16.8
2018-May-23 21:00S 38°34' E 174°35'1 0.8 1006.4 16.9
2018-May-23 20:00S 38°35' E 174°34'0 0.0 1005.9 16.9
2018-May-23 19:00S 38°35' E 174°34'1 0.6 1005.1 16.9
2018-May-23 18:00S 38°34' E 174°34'1 0.9 1004.6 16.9
2018-May-23 17:00S 38°34' E 174°33'0 0.0 1003.8 16.9
2018-May-23 16:00S 38°34' E 174°33'0 0.0 1003.3 16.9
2018-May-23 14:00S 38°34' E 174°33'1 0.3 1002.9 16.9
2018-May-23 10:00S 38°35' E 174°32'1 0.6 1000.4 16.7
2018-May-23 09:00S 38°34' E 174°32'1 0.8 999.4 16.7
2018-May-23 08:00S 38°35' E 174°32'1 0.6 998.1 16.9
2018-May-23 07:00S 38°34' E 174°32'0 0.0 997.2 16.8
2018-May-23 06:00S 38°34' E 174°32'1 1.1 996.4 17.0
2018-May-23 05:00S 38°34' E 174°34'0 0.5 994.9 17.0
2018-May-23 04:00S 38°34' E 174°34'2 1.1 994.8 17.1
2018-May-23 02:00S 38°32' E 174°32'1 0.1 994.0 17.1
2018-May-22 21:00S 38°31' E 174°32'1 0.8 994.4 17.2
2018-May-22 20:00S 38°31' E 174°32'1 0.6 993.9 17.2
2018-May-22 19:00S 38°30' E 174°32'1 0.6 993.2 17.2
2018-May-22 18:00S 38°29' E 174°32'2 1.5 992.5 17.2
2018-May-22 17:00S 38°28' E 174°31'0 0.0 992.5 17.2
2018-May-22 16:00S 38°28' E 174°31'1 1.3 992.8 17.6
2018-May-22 15:00S 38°27' E 174°30'0 0.0 992.7 17.8
2018-May-22 14:00S 38°27' E 174°30'3 1.3 994.0 17.7
2018-May-22 12:00S 38°26' E 174°27'1 0.8 993.9 17.7
2018-May-22 11:00S 38°25' E 174°26'1 1.3 993.8 17.7
2018-May-22 10:00S 38°24' E 174°26'0 0.0 994.7 17.7
2018-May-22 09:00S 38°24' E 174°26'1 0.4 995.9 17.8
2018-May-22 07:00S 38°23' E 174°25'1 0.8 997.4 17.8
2018-May-22 06:00S 38°23' E 174°25'0 0.0 997.9 17.8
2018-May-22 05:00S 38°23' E 174°25'3 2.6 998.8 17.9
2018-May-22 04:00S 38°22' E 174°22'0 0.0 999.4 17.9
2018-May-22 03:00S 38°22' E 174°22'0 0.0 1000.5 17.9
2018-May-22 02:00S 38°22' E 174°22'1 0.2 1001.3 17.9
2018-May-21 22:00S 38°21' E 174°22'0 0.0 1005.9 17.8
2018-May-21 21:00S 38°21' E 174°22'0 0.5 1006.3 17.8
2018-May-21 20:00S 38°21' E 174°22'1 0.6 1006.7 17.9
2018-May-21 19:00S 38°22' E 174°22'0 0.0 1006.8 17.9
2018-May-21 18:00S 38°22' E 174°22'1 0.5 1007.0 17.9
2018-May-21 16:00S 38°22' E 174°20'0 0.0 1007.6 18.0
2018-May-21 15:00S 38°22' E 174°20'0 0.0 1008.1 18.0
2018-May-21 14:00S 38°22' E 174°20'2 0.6 1008.7 18.0
2018-May-21 11:00S 38°22' E 174°18'0 0.5 1009.7 18.0
2018-May-21 10:00S 38°22' E 174°17'0 0.0 1010.1 18.0
2018-May-21 09:00S 38°22' E 174°17'0 0.2 1009.6 18.0
2018-May-21 07:00S 38°22' E 174°17'1 0.8 1009.2 18.0
2018-May-21 06:00S 38°22' E 174°16'0 0.0 1008.6 18.0
2018-May-21 05:00S 38°22' E 174°16'0 0.0 1008.3 18.0
2018-May-21 04:00S 38°22' E 174°16'0 0.5 1008.1 17.9
2018-May-21 03:00S 38°22' E 174°16'2 1.9 1007.8 17.9
2018-May-21 02:00S 38°22' E 174°13'0 0.0 1007.5 17.9
2018-May-20 22:00S 38°22' E 174°13'1 0.9 1008.7 18.0
2018-May-20 21:00S 38°22' E 174°12'1 0.9 1008.7 18.0
2018-May-20 20:00S 38°22' E 174°11'1 0.8 1007.9 18.0
2018-May-20 19:00S 38°22' E 174°11'1 0.9 1007.7 18.0
2018-May-20 18:00S 38°22' E 174°10'1 0.6 1007.4 18.0
2018-May-20 17:00S 38°21' E 174°10'0 0.0 1007.5 18.0
2018-May-20 16:00S 38°21' E 174°10'1 0.9 1007.7 18.0
2018-May-20 15:00S 38°21' E 174°09'4 0.9 1008.0 18.0
2018-May-20 11:00S 38°20' E 174°05'0 0.0 1008.8 18.0
2018-May-20 10:00S 38°20' E 174°05'1 0.3 1009.4 18.0
2018-May-20 06:00S 38°19' E 174°04'1 0.8 1009.8 18.0
2018-May-20 05:00S 38°18' E 174°04'0 0.5 1010.1 18.0
2018-May-20 04:00S 38°18' E 174°03'0 0.0 1010.3 18.0
2018-May-20 03:00S 38°18' E 174°03'2 1.5 1010.7 18.0
2018-May-20 02:00S 38°17' E 174°02'0 0.1 1011.3 18.0
2018-May-19 22:00S 38°17' E 174°01'1 1.1 1013.5 18.0
2018-May-19 21:00S 38°16' E 174°00'0 0.0 1013.8 18.0
2018-May-19 20:00S 38°16' E 174°00'1 0.8 1013.6 18.0
2018-May-19 19:00S 38°17' E 173°59'0 0.0 1013.4 18.0
2018-May-19 18:00S 38°17' E 173°59'0 0.0 1013.2 18.0
2018-May-19 17:00S 38°17' E 173°59'0 0.0 1013.2 18.0
2018-May-19 16:00S 38°17' E 173°59'0 0.0 1013.0 18.0
2018-May-19 15:00S 38°17' E 173°59'0 0.0 1013.4 18.0
2018-May-19 14:00S 38°17' E 173°59'2 0.5 1013.2 18.0
2018-May-19 09:00S 38°17' E 173°56'0 0.5 1012.5 18.1
2018-May-19 08:00S 38°17' E 173°56'1 0.6 1012.0 18.1
2018-May-19 07:00S 38°16' E 173°56'1 1.2 1011.5 18.1
2018-May-19 06:00S 38°17' E 173°56'0 0.5 1010.8 18.1
2018-May-19 05:00S 38°17' E 173°55'1 0.3 1010.6 18.1
2018-May-19 03:00S 38°18' E 173°55'4 0.6 1010.5 18.2
2018-May-18 21:00S 38°16' E 173°51'1 1.1 1013.4 18.1
2018-May-18 20:00S 38°16' E 173°50'1 0.8 1013.2 18.1
2018-May-18 19:00S 38°15' E 173°49'0 0.0 1013.1 18.1
2018-May-18 18:00S 38°15' E 173°49'1 0.6 1013.2 18.1
2018-May-18 17:00S 38°14' E 173°49'0 0.5 1013.5 18.1
2018-May-18 16:00S 38°14' E 173°49'0 0.0 1014.0 18.1
2018-May-18 15:00S 38°14' E 173°49'0 0.0 1014.7 18.1
2018-May-18 14:00S 38°14' E 173°49'1 0.5 1014.9 18.1
2018-May-18 11:00S 38°14' E 173°47'0 0.5 1016.0 18.2
2018-May-18 10:00S 38°14' E 173°46'2 1.5 1016.4 18.2
2018-May-18 09:00S 38°13' E 173°45'0 0.0 1016.6 18.2
2018-May-18 08:00S 38°13' E 173°45'2 1.5 1016.9 18.2
2018-May-18 07:00S 38°13' E 173°43'0 0.0 1017.1 18.2
2018-May-18 06:00S 38°13' E 173°43'0 0.5 1017.2 18.2
2018-May-18 05:00S 38°13' E 173°44'0 0.0 1017.6 18.2
2018-May-18 04:00S 38°13' E 173°44'0 0.0 1017.4 18.2
2018-May-18 03:00S 38°13' E 173°44'2 0.3 1016.8 18.3
2018-May-17 22:00S 38°13' E 173°42'0 0.5 1017.9 18.2
2018-May-17 21:00S 38°13' E 173°41'0 0.5 1017.8 18.2
2018-May-17 20:00S 38°13' E 173°41'1 0.6 1017.6 18.2
2018-May-17 18:00S 38°14' E 173°40'1 1.1 1016.9 18.1
2018-May-17 17:00S 38°14' E 173°38'0 0.0 1016.3 18.0
2018-May-17 16:00S 38°14' E 173°38'0 0.0 1016.2 17.9
2018-May-17 15:00S 38°14' E 173°38'3 1.3 1016.2 17.8
2018-May-17 13:00S 38°16' E 173°36'0 0.0 1015.6 17.8
2018-May-17 12:00S 38°16' E 173°36'0 0.0 1015.2 17.8
2018-May-17 11:00S 38°16' E 173°36'0 0.5 1014.9 17.8
2018-May-17 10:00S 38°16' E 173°35'0 0.5 1014.8 17.7
2018-May-17 09:00S 38°16' E 173°35'1 0.6 1014.6 17.6
2018-May-17 08:00S 38°16' E 173°35'1 0.9 1014.3 17.6
2018-May-17 07:00S 38°16' E 173°34'1 0.6 1013.8 17.7
2018-May-17 06:00S 38°16' E 173°34'1 0.8 1013.2 17.7
2018-May-17 05:00S 38°17' E 173°34'1 0.8 1012.9 17.8
2018-May-17 04:00S 38°16' E 173°34'5 1.1 1012.5 17.8
2018-May-16 23:00S 38°22' E 173°32'1 0.6 1012.0 17.6
2018-May-16 22:00S 38°22' E 173°32'2 2.4 1011.4 17.6
2018-May-16 21:00S 38°22' E 173°29'0 0.5 1011.0 17.6
2018-May-16 20:00S 38°22' E 173°29'1 0.8 1010.2 17.6
2018-May-16 19:00S 38°22' E 173°28'1 0.9 1009.6 17.6
2018-May-16 18:00S 38°22' E 173°27'1 0.8 1009.2 17.6
2018-May-16 17:00S 38°22' E 173°26'0 0.0 1008.6 17.6
2018-May-16 14:00S 38°22' E 173°26'1 0.2 1007.8 17.6
2018-May-16 11:00S 38°23' E 173°26'0 0.0 1006.9 17.6
2018-May-16 10:00S 38°23' E 173°26'0 0.0 1006.5 17.6
2018-May-16 09:00S 38°23' E 173°26'1 0.8 1006.1 17.6
2018-May-16 08:00S 38°23' E 173°27'1 1.4 1005.7 17.6
2018-May-16 07:00S 38°23' E 173°25'1 1.2 1005.2 17.6
2018-May-16 06:00S 38°25' E 173°25'1 0.9 1004.5 17.6
2018-May-16 05:00S 38°25' E 173°24'2 1.5 1003.8 17.6
2018-May-16 04:00S 38°26' E 173°23'0 0.0 1003.2 17.6
2018-May-16 03:00S 38°26' E 173°23'4 0.8 1002.9 17.6
2018-May-15 22:00S 38°26' E 173°18'2 1.9 1002.5 17.6
2018-May-15 21:00S 38°25' E 173°16'1 1.3 1002.6 17.6
2018-May-15 20:00S 38°23' E 173°16'1 0.8 1002.6 17.7
2018-May-15 19:00S 38°23' E 173°15'1 0.6 1002.8 17.8
2018-May-15 18:00S 38°22' E 173°15'0 0.0 1003.0 17.8
2018-May-15 17:00S 38°22' E 173°15'0 0.0 1003.5 17.8
2018-May-15 14:00S 38°22' E 173°15'1 1.4 1005.4 17.9
2018-May-15 13:00S 38°22' E 173°13'0 0.0 1006.0 17.9
2018-May-15 12:00S 38°22' E 173°13'1 0.6 1006.4 18.0
2018-May-15 11:00S 38°22' E 173°13'1 1.1 1006.8 18.0
2018-May-15 10:00S 38°21' E 173°12'1 0.8 1007.1 18.0
2018-May-15 09:00S 38°20' E 173°11'1 1.3 1007.3 18.0
2018-May-15 08:00S 38°19' E 173°11'1 0.6 1007.7 18.0
2018-May-15 07:00S 38°19' E 173°11'1 0.8 1007.5 18.1
2018-May-15 06:00S 38°19' E 173°11'2 1.5 1008.0 18.2
2018-May-15 05:00S 38°18' E 173°10'0 0.5 1008.2 18.3
2018-May-15 04:00S 38°18' E 173°11'0 0.0 1008.6 18.5
2018-May-15 03:00S 38°18' E 173°11'4 1.1 1008.8 18.5
2018-May-14 23:00S 38°14' E 173°10'1 1.3 1011.3 18.5
2018-May-14 22:00S 38°13' E 173°10'1 1.1 1011.9 18.6
2018-May-14 21:00S 38°12' E 173°11'1 0.6 1012.5 18.6
2018-May-14 20:00S 38°13' E 173°11'1 1.1 1012.8 18.6
2018-May-14 19:00S 38°12' E 173°13'0 0.0 1012.0 18.6
2018-May-14 18:00S 38°12' E 173°13'   1011.8 18.6
Track history (hours):
 
Tides and Currents Weather Stations Pressure Air Temp Water Temp Dewpoint Dewpoint Depression Visibility Wind Speed Wind Dir Waves Ship Positions

Drifting buoy 16556

Last reported at 2018-May-24 18:00 UTC. Time now 2018-Jun-19 12:15 UTC.
Position S 38°33' E 174°38'.
Warning: this ship's position is 25 days out of date.

Barometer 1001.8 mb
Water temperature 13.1 ° C

Date/timePositionNaut miles runAvg speedWind from/ knotsBaromVisibWave heightAir tempDewpointWater temp
2018-May-24 18:00S 38°33' E 174°38'0 0.0 1001.8 13.1
2018-May-24 17:00S 38°33' E 174°38'0 0.1 1000.9 12.6
2018-May-24 11:00S 38°33' E 174°38'0 0.0 1003.3 13.8
2018-May-24 10:00S 38°33' E 174°38'0 0.1 1003.7 14.1
2018-May-24 06:00S 38°33' E 174°38'0 0.0 1003.6 15.6
2018-May-24 05:00S 38°33' E 174°38'2 0.3 1004.1 15.7
2018-May-23 22:00S 38°34' E 174°35'0 0.5 1007.0 16.8
2018-May-23 21:00S 38°34' E 174°35'1 0.8 1006.4 16.9
2018-May-23 20:00S 38°35' E 174°34'0 0.0 1005.9 16.9
2018-May-23 19:00S 38°35' E 174°34'1 0.6 1005.1 16.9
2018-May-23 18:00S 38°34' E 174°34'1 0.9 1004.6 16.9
2018-May-23 17:00S 38°34' E 174°33'0 0.0 1003.8 16.9
2018-May-23 16:00S 38°34' E 174°33'0 0.0 1003.3 16.9
2018-May-23 14:00S 38°34' E 174°33'1 0.3 1002.9 16.9
2018-May-23 10:00S 38°35' E 174°32'1 0.6 1000.4 16.7
2018-May-23 09:00S 38°34' E 174°32'1 0.8 999.4 16.7
2018-May-23 08:00S 38°35' E 174°32'1 0.6 998.1 16.9
2018-May-23 07:00S 38°34' E 174°32'0 0.0 997.2 16.8
2018-May-23 06:00S 38°34' E 174°32'1 1.1 996.4 17.0
2018-May-23 05:00S 38°34' E 174°34'0 0.5 994.9 17.0
2018-May-23 04:00S 38°34' E 174°34'2 1.1 994.8 17.1
2018-May-23 02:00S 38°32' E 174°32'1 0.1 994.0 17.1
2018-May-22 21:00S 38°31' E 174°32'1 0.8 994.4 17.2
2018-May-22 20:00S 38°31' E 174°32'1 0.6 993.9 17.2
2018-May-22 19:00S 38°30' E 174°32'1 0.6 993.2 17.2
2018-May-22 18:00S 38°29' E 174°32'2 1.5 992.5 17.2
2018-May-22 17:00S 38°28' E 174°31'0 0.0 992.5 17.2
2018-May-22 16:00S 38°28' E 174°31'1 1.3 992.8 17.6
2018-May-22 15:00S 38°27' E 174°30'0 0.0 992.7 17.8
2018-May-22 14:00S 38°27' E 174°30'3 1.3 994.0 17.7
2018-May-22 12:00S 38°26' E 174°27'1 0.8 993.9 17.7
2018-May-22 11:00S 38°25' E 174°26'1 1.3 993.8 17.7
2018-May-22 10:00S 38°24' E 174°26'0 0.0 994.7 17.7
2018-May-22 09:00S 38°24' E 174°26'1 0.4 995.9 17.8
2018-May-22 07:00S 38°23' E 174°25'1 0.8 997.4 17.8
2018-May-22 06:00S 38°23' E 174°25'0 0.0 997.9 17.8
2018-May-22 05:00S 38°23' E 174°25'3 2.6 998.8 17.9
2018-May-22 04:00S 38°22' E 174°22'0 0.0 999.4 17.9
2018-May-22 03:00S 38°22' E 174°22'0 0.0 1000.5 17.9
2018-May-22 02:00S 38°22' E 174°22'1 0.2 1001.3 17.9
2018-May-21 22:00S 38°21' E 174°22'0 0.0 1005.9 17.8
2018-May-21 21:00S 38°21' E 174°22'0 0.5 1006.3 17.8
2018-May-21 20:00S 38°21' E 174°22'1 0.6 1006.7 17.9
2018-May-21 19:00S 38°22' E 174°22'0 0.0 1006.8 17.9
2018-May-21 18:00S 38°22' E 174°22'1 0.5 1007.0 17.9
2018-May-21 16:00S 38°22' E 174°20'0 0.0 1007.6 18.0
2018-May-21 15:00S 38°22' E 174°20'0 0.0 1008.1 18.0
2018-May-21 14:00S 38°22' E 174°20'2 0.6 1008.7 18.0
2018-May-21 11:00S 38°22' E 174°18'0 0.5 1009.7 18.0
2018-May-21 10:00S 38°22' E 174°17'0 0.0 1010.1 18.0
2018-May-21 09:00S 38°22' E 174°17'0 0.2 1009.6 18.0
2018-May-21 07:00S 38°22' E 174°17'1 0.8 1009.2 18.0
2018-May-21 06:00S 38°22' E 174°16'0 0.0 1008.6 18.0
2018-May-21 05:00S 38°22' E 174°16'0 0.0 1008.3 18.0
2018-May-21 04:00S 38°22' E 174°16'0 0.5 1008.1 17.9
2018-May-21 03:00S 38°22' E 174°16'2 1.9 1007.8 17.9
2018-May-21 02:00S 38°22' E 174°13'0 0.0 1007.5 17.9
2018-May-20 22:00S 38°22' E 174°13'1 0.9 1008.7 18.0
2018-May-20 21:00S 38°22' E 174°12'1 0.9 1008.7 18.0
2018-May-20 20:00S 38°22' E 174°11'1 0.8 1007.9 18.0
2018-May-20 19:00S 38°22' E 174°11'1 0.9 1007.7 18.0
2018-May-20 18:00S 38°22' E 174°10'1 0.6 1007.4 18.0
2018-May-20 17:00S 38°21' E 174°10'0 0.0 1007.5 18.0
2018-May-20 16:00S 38°21' E 174°10'1 0.9 1007.7 18.0
2018-May-20 15:00S 38°21' E 174°09'4 0.9 1008.0 18.0
2018-May-20 11:00S 38°20' E 174°05'0 0.0 1008.8 18.0
2018-May-20 10:00S 38°20' E 174°05'1 0.3 1009.4 18.0
2018-May-20 06:00S 38°19' E 174°04'1 0.8 1009.8 18.0
2018-May-20 05:00S 38°18' E 174°04'0 0.5 1010.1 18.0
2018-May-20 04:00S 38°18' E 174°03'0 0.0 1010.3 18.0
2018-May-20 03:00S 38°18' E 174°03'2 1.5 1010.7 18.0
2018-May-20 02:00S 38°17' E 174°02'0 0.1 1011.3 18.0
2018-May-19 22:00S 38°17' E 174°01'1 1.1 1013.5 18.0
2018-May-19 21:00S 38°16' E 174°00'0 0.0 1013.8 18.0
2018-May-19 20:00S 38°16' E 174°00'1 0.8 1013.6 18.0
2018-May-19 19:00S 38°17' E 173°59'0 0.0 1013.4 18.0
2018-May-19 18:00S 38°17' E 173°59'0 0.0 1013.2 18.0
2018-May-19 17:00S 38°17' E 173°59'0 0.0 1013.2 18.0
2018-May-19 16:00S 38°17' E 173°59'0 0.0 1013.0 18.0
2018-May-19 15:00S 38°17' E 173°59'0 0.0 1013.4 18.0
2018-May-19 14:00S 38°17' E 173°59'2 0.5 1013.2 18.0
2018-May-19 09:00S 38°17' E 173°56'0 0.5 1012.5 18.1
2018-May-19 08:00S 38°17' E 173°56'1 0.6 1012.0 18.1
2018-May-19 07:00S 38°16' E 173°56'1 1.2 1011.5 18.1
2018-May-19 06:00S 38°17' E 173°56'0 0.5 1010.8 18.1
2018-May-19 05:00S 38°17' E 173°55'1 0.3 1010.6 18.1
2018-May-19 03:00S 38°18' E 173°55'4 0.6 1010.5 18.2
2018-May-18 21:00S 38°16' E 173°51'1 1.1 1013.4 18.1
2018-May-18 20:00S 38°16' E 173°50'1 0.8 1013.2 18.1
2018-May-18 19:00S 38°15' E 173°49'0 0.0 1013.1 18.1
2018-May-18 18:00S 38°15' E 173°49'1 0.6 1013.2 18.1
2018-May-18 17:00S 38°14' E 173°49'0 0.5 1013.5 18.1
2018-May-18 16:00S 38°14' E 173°49'0 0.0 1014.0 18.1
2018-May-18 15:00S 38°14' E 173°49'0 0.0 1014.7 18.1
2018-May-18 14:00S 38°14' E 173°49'1 0.5 1014.9 18.1
2018-May-18 11:00S 38°14' E 173°47'0 0.5 1016.0 18.2
2018-May-18 10:00S 38°14' E 173°46'2 1.5 1016.4 18.2
2018-May-18 09:00S 38°13' E 173°45'0 0.0 1016.6 18.2
2018-May-18 08:00S 38°13' E 173°45'2 1.5 1016.9 18.2
2018-May-18 07:00S 38°13' E 173°43'0 0.0 1017.1 18.2
2018-May-18 06:00S 38°13' E 173°43'0 0.5 1017.2 18.2
2018-May-18 05:00S 38°13' E 173°44'0 0.0 1017.6 18.2
2018-May-18 04:00S 38°13' E 173°44'0 0.0 1017.4 18.2
2018-May-18 03:00S 38°13' E 173°44'2 0.3 1016.8 18.3
2018-May-17 22:00S 38°13' E 173°42'0 0.5 1017.9 18.2
2018-May-17 21:00S 38°13' E 173°41'0 0.5 1017.8 18.2
2018-May-17 20:00S 38°13' E 173°41'1 0.6 1017.6 18.2
2018-May-17 18:00S 38°14' E 173°40'1 1.1 1016.9 18.1
2018-May-17 17:00S 38°14' E 173°38'0 0.0 1016.3 18.0
2018-May-17 16:00S 38°14' E 173°38'0 0.0 1016.2 17.9
2018-May-17 15:00S 38°14' E 173°38'3 1.3 1016.2 17.8
2018-May-17 13:00S 38°16' E 173°36'0 0.0 1015.6 17.8
2018-May-17 12:00S 38°16' E 173°36'0 0.0 1015.2 17.8
2018-May-17 11:00S 38°16' E 173°36'0 0.5 1014.9 17.8
2018-May-17 10:00S 38°16' E 173°35'0 0.5 1014.8 17.7
2018-May-17 09:00S 38°16' E 173°35'1 0.6 1014.6 17.6
2018-May-17 08:00S 38°16' E 173°35'1 0.9 1014.3 17.6
2018-May-17 07:00S 38°16' E 173°34'1 0.6 1013.8 17.7
2018-May-17 06:00S 38°16' E 173°34'1 0.8 1013.2 17.7
2018-May-17 05:00S 38°17' E 173°34'1 0.8 1012.9 17.8
2018-May-17 04:00S 38°16' E 173°34'5 1.1 1012.5 17.8
2018-May-16 23:00S 38°22' E 173°32'1 0.6 1012.0 17.6
2018-May-16 22:00S 38°22' E 173°32'2 2.4 1011.4 17.6
2018-May-16 21:00S 38°22' E 173°29'0 0.5 1011.0 17.6
2018-May-16 20:00S 38°22' E 173°29'1 0.8 1010.2 17.6
2018-May-16 19:00S 38°22' E 173°28'1 0.9 1009.6 17.6
2018-May-16 18:00S 38°22' E 173°27'1 0.8 1009.2 17.6
2018-May-16 17:00S 38°22' E 173°26'0 0.0 1008.6 17.6
2018-May-16 14:00S 38°22' E 173°26'1 0.2 1007.8 17.6
2018-May-16 11:00S 38°23' E 173°26'0 0.0 1006.9 17.6
2018-May-16 10:00S 38°23' E 173°26'0 0.0 1006.5 17.6
2018-May-16 09:00S 38°23' E 173°26'1 0.8 1006.1 17.6
2018-May-16 08:00S 38°23' E 173°27'1 1.4 1005.7 17.6
2018-May-16 07:00S 38°23' E 173°25'1 1.2 1005.2 17.6
2018-May-16 06:00S 38°25' E 173°25'1 0.9 1004.5 17.6
2018-May-16 05:00S 38°25' E 173°24'2 1.5 1003.8 17.6
2018-May-16 04:00S 38°26' E 173°23'0 0.0 1003.2 17.6
2018-May-16 03:00S 38°26' E 173°23'4 0.8 1002.9 17.6
2018-May-15 22:00S 38°26' E 173°18'2 1.9 1002.5 17.6
2018-May-15 21:00S 38°25' E 173°16'1 1.3 1002.6 17.6
2018-May-15 20:00S 38°23' E 173°16'1 0.8 1002.6 17.7
2018-May-15 19:00S 38°23' E 173°15'1 0.6 1002.8 17.8
2018-May-15 18:00S 38°22' E 173°15'0 0.0 1003.0 17.8
2018-May-15 17:00S 38°22' E 173°15'0 0.0 1003.5 17.8
2018-May-15 14:00S 38°22' E 173°15'1 1.4 1005.4 17.9
2018-May-15 13:00S 38°22' E 173°13'0 0.0 1006.0 17.9
2018-May-15 12:00S 38°22' E 173°13'1 0.6 1006.4 18.0
2018-May-15 11:00S 38°22' E 173°13'1 1.1 1006.8 18.0
2018-May-15 10:00S 38°21' E 173°12'1 0.8 1007.1 18.0
2018-May-15 09:00S 38°20' E 173°11'1 1.3 1007.3 18.0
2018-May-15 08:00S 38°19' E 173°11'1 0.6 1007.7 18.0
2018-May-15 07:00S 38°19' E 173°11'1 0.8 1007.5 18.1
2018-May-15 06:00S 38°19' E 173°11'2 1.5 1008.0 18.2
2018-May-15 05:00S 38°18' E 173°10'0 0.5 1008.2 18.3
2018-May-15 04:00S 38°18' E 173°11'0 0.0 1008.6 18.5
2018-May-15 03:00S 38°18' E 173°11'4 1.1 1008.8 18.5
2018-May-14 23:00S 38°14' E 173°10'1 1.3 1011.3 18.5
2018-May-14 22:00S 38°13' E 173°10'1 1.1 1011.9 18.6
2018-May-14 21:00S 38°12' E 173°11'1 0.6 1012.5 18.6
2018-May-14 20:00S 38°13' E 173°11'1 1.1 1012.8 18.6
2018-May-14 19:00S 38°12' E 173°13'0 0.0 1012.0 18.6
2018-May-14 18:00S 38°12' E 173°13'   1011.8 18.6

Dump ship's entire track history